Historique des mesures à Cassis (13260), France
Quotidien Résumé Octobre 6, 2017 Unités:  Métrique    US   Métrique/US
« Précédent (Jour)
Suivant (Jour) »
Quotidien Hebdomadaire Mensuel Annuel Période au choix
  Maximum: Minimum: Moyenne:
Température: TemperatureC °C 15.4 °C 18.1 °C
Point de rosée: DewpointC °C 1.4 °C 5.5 °C
Humidité: Humidity % 29 % 42 %
Vitesse du vent: 0 km/h 14 km/h 34.3 km/h
Rafales: 0 km/h - -
Vent:- - ESE
Pression: PressurehPa hPa 1007.3 hPa -
Précipitations: 0.0 mm    
Historical Graphs
 
 
Mesures pour : Octobre 6, 2017
Heure Temperature Point de rosée Pression Vent Vitesse du vent Rafales Humidité Pluie (par heure) Conditions
TemperatureC °C DewpointC °C PressurehPa hPa Calm     Humidity % HourlyPrecipMM mm SoftwareType W/m2
00:11 22.4 °C 4.0 °C 1010.0 hPa NNW 29 km/h 38.8 km/h 30 % 0.0 mm open2300-1.11 W/m2
01:11 21.4 °C 3.6 °C 1010.0 hPa NNW 35.2 km/h 35.2 km/h 31 % 0.0 mm open2300-1.11 W/m2
02:11 20.9 °C 4.3 °C 1010.0 hPa NNE 17.9 km/h 33.2 km/h 34 % 0.0 mm open2300-1.11 W/m2
03:11 20.3 °C 6.6 °C 1009.4 hPa NNE 26.2 km/h 40.7 km/h 41 % 0.0 mm open2300-1.11 W/m2
04:11 20.2 °C 7.8 °C 1008.7 hPa North 22.5 km/h 36.5 km/h 45 % 0.0 mm open2300-1.11 W/m2
06:11 19.9 °C 10.0 °C 1007.3 hPa North 39.9 km/h 54.9 km/h 53 % 0.0 mm open2300-1.11 W/m2
07:11 18.9 °C 9.9 °C 1007.7 hPa North 52.8 km/h 63.7 km/h 56 % 0.0 mm open2300-1.11 W/m2
08:11 17.9 °C 10.2 °C 1007.7 hPa North 59.1 km/h 78.7 km/h 61 % 0.0 mm open2300-1.11 W/m2
09:11 17.8 °C 10.9 °C 1008.4 hPa North 42.6 km/h 50.5 km/h 64 % 0.0 mm open2300-1.11 W/m2
10:11 18.4 °C 11.0 °C 1008.7 hPa North 33.2 km/h 38.3 km/h 62 % 0.0 mm open2300-1.11 W/m2
12:11 19.6 °C 7.6 °C 1009.7 hPa North 34.1 km/h 34.1 km/h 46 % 0.0 mm open2300-1.11 W/m2
13:11 19.8 °C 7.5 °C 1009.0 hPa WNW 63.7 km/h 63.7 km/h 45 % 0.0 mm open2300-1.11 W/m2
14:11 20.1 °C 4.9 °C 1008.0 hPa NNE 33.2 km/h 87.5 km/h 37 % 0.0 mm open2300-1.11 W/m2
15:11 20.1 °C 1.4 °C 1007.3 hPa NNE 54.4 km/h 68.4 km/h 29 % 0.0 mm open2300-1.11 W/m2
16:11 19.8 °C 2.6 °C 1008.0 hPa NNW 54.4 km/h 54.4 km/h 32 % 0.0 mm open2300-1.11 W/m2
17:11 19.5 °C 2.7 °C 1008.0 hPa NNW 26.7 km/h 83.8 km/h 33 % 0.0 mm open2300-1.11 W/m2
18:11 18.6 °C 3.6 °C 1008.0 hPa North 26.7 km/h 63.2 km/h 37 % 0.0 mm open2300-1.11 W/m2
19:11 17.4 °C 3.7 °C 1009.0 hPa WNW 30.7 km/h 57.9 km/h 40 % 0.0 mm open2300-1.11 W/m2
20:11 16.6 °C 3.6 °C 1010.0 hPa NNE 34.1 km/h 37.5 km/h 42 % 0.0 mm open2300-1.11 W/m2
21:11 15.9 °C 4.2 °C 1009.0 hPa NW 38.8 km/h 52 km/h 46 % 0.0 mm open2300-1.11 W/m2
22:11 15.4 °C 3.8 °C 1009.7 hPa North 17.4 km/h 29 km/h 46 % 0.0 mm open2300-1.11 W/m2
23:11 15.4 °C 3.2 °C 1011.7 hPa North 14 km/h 37 km/h 44 % 0.0 mm open2300-1.11 W/m2
Observations météo à CASSIS
WU-History script by Weather Underground - 1 mb